sensor_id;sensor_type;location;lat;lon;timestamp;P1;durP1;ratioP1;P2;durP2;ratioP2
42066;SDS011;27734;47.028;28.820;2023-04-03T00:02:05;11.73;;;5.70;;
42066;SDS011;27734;47.028;28.820;2023-04-03T00:04:36;10.37;;;5.60;;
42066;SDS011;27734;47.028;28.820;2023-04-03T00:07:07;13.27;;;6.40;;
42066;SDS011;27734;47.028;28.820;2023-04-03T00:09:40;14.43;;;6.67;;
42066;SDS011;27734;47.028;28.820;2023-04-03T00:12:11;14.57;;;6.60;;
42066;SDS011;27734;47.028;28.820;2023-04-03T00:14:43;15.13;;;7.10;;
42066;SDS011;27734;47.028;28.820;2023-04-03T00:17:14;14.67;;;7.13;;
42066;SDS011;27734;47.028;28.820;2023-04-03T00:19:46;13.67;;;6.43;;
42066;SDS011;27734;47.028;28.820;2023-04-03T00:22:17;13.20;;;6.70;;
42066;SDS011;27734;47.028;28.820;2023-04-03T00:24:48;13.07;;;6.43;;
42066;SDS011;27734;47.028;28.820;2023-04-03T00:27:19;12.90;;;6.20;;
42066;SDS011;27734;47.028;28.820;2023-04-03T00:29:51;11.17;;;5.23;;
42066;SDS011;27734;47.028;28.820;2023-04-03T00:32:22;11.17;;;5.37;;
42066;SDS011;27734;47.028;28.820;2023-04-03T00:34:54;8.07;;;4.57;;
42066;SDS011;27734;47.028;28.820;2023-04-03T00:37:25;9.73;;;4.80;;
42066;SDS011;27734;47.028;28.820;2023-04-03T00:39:56;8.50;;;4.23;;
42066;SDS011;27734;47.028;28.820;2023-04-03T00:42:27;8.43;;;4.37;;
42066;SDS011;27734;47.028;28.820;2023-04-03T00:48:10;8.73;;;4.40;;
42066;SDS011;27734;47.028;28.820;2023-04-03T00:50:44;8.50;;;4.37;;
42066;SDS011;27734;47.028;28.820;2023-04-03T00:53:17;7.93;;;4.37;;
42066;SDS011;27734;47.028;28.820;2023-04-03T00:55:52;9.23;;;4.07;;
42066;SDS011;27734;47.028;28.820;2023-04-03T00:58:27;7.50;;;4.30;;
42066;SDS011;27734;47.028;28.820;2023-04-03T01:01:05;8.37;;;4.60;;
42066;SDS011;27734;47.028;28.820;2023-04-03T01:03:41;7.55;;;4.25;;
42066;SDS011;27734;47.028;28.820;2023-04-03T01:06:13;9.53;;;4.57;;
42066;SDS011;27734;47.028;28.820;2023-04-03T01:08:47;8.08;;;4.40;;
42066;SDS011;27734;47.028;28.820;2023-04-03T01:11:20;8.95;;;4.92;;
42066;SDS011;27734;47.028;28.820;2023-04-03T01:13:52;9.67;;;4.53;;
42066;SDS011;27734;47.028;28.820;2023-04-03T01:16:23;8.47;;;4.33;;
42066;SDS011;27734;47.028;28.820;2023-04-03T01:18:54;7.63;;;4.40;;
42066;SDS011;27734;47.028;28.820;2023-04-03T01:24:21;8.57;;;4.67;;
42066;SDS011;27734;47.028;28.820;2023-04-03T01:27:03;8.83;;;4.63;;
42066;SDS011;27734;47.028;28.820;2023-04-03T01:29:35;8.93;;;4.67;;
42066;SDS011;27734;47.028;28.820;2023-04-03T01:32:09;10.53;;;5.00;;
42066;SDS011;27734;47.028;28.820;2023-04-03T01:34:40;9.90;;;4.80;;
42066;SDS011;27734;47.028;28.820;2023-04-03T01:37:11;10.47;;;5.13;;
42066;SDS011;27734;47.028;28.820;2023-04-03T01:39:43;11.90;;;5.13;;
42066;SDS011;27734;47.028;28.820;2023-04-03T01:42:14;9.53;;;5.10;;
42066;SDS011;27734;47.028;28.820;2023-04-03T01:44:46;9.10;;;4.77;;
42066;SDS011;27734;47.028;28.820;2023-04-03T01:47:17;11.00;;;5.10;;
42066;SDS011;27734;47.028;28.820;2023-04-03T01:49:48;10.90;;;4.93;;
42066;SDS011;27734;47.028;28.820;2023-04-03T01:52:20;10.07;;;5.00;;
42066;SDS011;27734;47.028;28.820;2023-04-03T01:54:52;7.25;;;4.20;;
42066;SDS011;27734;47.028;28.820;2023-04-03T01:57:23;7.30;;;4.20;;
42066;SDS011;27734;47.028;28.820;2023-04-03T01:59:55;8.10;;;4.27;;
42066;SDS011;27734;47.028;28.820;2023-04-03T02:02:26;9.25;;;4.10;;
42066;SDS011;27734;47.028;28.820;2023-04-03T02:04:57;7.90;;;4.20;;
42066;SDS011;27734;47.028;28.820;2023-04-03T02:07:29;7.30;;;3.90;;
42066;SDS011;27734;47.028;28.820;2023-04-03T02:10:00;9.23;;;3.93;;
42066;SDS011;27734;47.028;28.820;2023-04-03T02:12:31;6.00;;;3.40;;
42066;SDS011;27734;47.028;28.820;2023-04-03T02:15:03;8.07;;;4.10;;
42066;SDS011;27734;47.028;28.820;2023-04-03T02:17:36;7.73;;;3.77;;
42066;SDS011;27734;47.028;28.820;2023-04-03T02:20:08;9.27;;;4.17;;
42066;SDS011;27734;47.028;28.820;2023-04-03T02:22:39;8.27;;;4.33;;
42066;SDS011;27734;47.028;28.820;2023-04-03T02:25:11;8.40;;;4.23;;
42066;SDS011;27734;47.028;28.820;2023-04-03T02:27:42;9.50;;;4.43;;
42066;SDS011;27734;47.028;28.820;2023-04-03T02:30:14;8.37;;;4.13;;
42066;SDS011;27734;47.028;28.820;2023-04-03T02:32:45;7.50;;;3.97;;
42066;SDS011;27734;47.028;28.820;2023-04-03T02:35:16;7.90;;;4.37;;
42066;SDS011;27734;47.028;28.820;2023-04-03T02:37:49;9.83;;;4.70;;
42066;SDS011;27734;47.028;28.820;2023-04-03T02:40:21;9.17;;;4.73;;
42066;SDS011;27734;47.028;28.820;2023-04-03T02:42:52;8.87;;;4.43;;
42066;SDS011;27734;47.028;28.820;2023-04-03T02:45:24;10.65;;;4.60;;
42066;SDS011;27734;47.028;28.820;2023-04-03T02:47:56;9.63;;;4.50;;
42066;SDS011;27734;47.028;28.820;2023-04-03T02:50:27;8.50;;;4.33;;
42066;SDS011;27734;47.028;28.820;2023-04-03T02:52:58;9.30;;;4.53;;
42066;SDS011;27734;47.028;28.820;2023-04-03T02:55:29;7.97;;;4.23;;
42066;SDS011;27734;47.028;28.820;2023-04-03T02:58:01;9.00;;;4.50;;
42066;SDS011;27734;47.028;28.820;2023-04-03T03:00:33;8.23;;;4.17;;
42066;SDS011;27734;47.028;28.820;2023-04-03T03:03:04;9.00;;;4.00;;
42066;SDS011;27734;47.028;28.820;2023-04-03T03:05:36;8.63;;;4.53;;
42066;SDS011;27734;47.028;28.820;2023-04-03T03:08:07;8.23;;;4.10;;
42066;SDS011;27734;47.028;28.820;2023-04-03T03:10:39;8.47;;;4.17;;
42066;SDS011;27734;47.028;28.820;2023-04-03T03:13:10;7.70;;;3.77;;
42066;SDS011;27734;47.028;28.820;2023-04-03T03:15:41;8.03;;;3.80;;
42066;SDS011;27734;47.028;28.820;2023-04-03T03:18:13;9.33;;;4.23;;
42066;SDS011;27734;47.028;28.820;2023-04-03T03:20:45;9.57;;;4.33;;
42066;SDS011;27734;47.028;28.820;2023-04-03T03:23:21;8.27;;;3.80;;
42066;SDS011;27734;47.028;28.820;2023-04-03T03:25:55;8.03;;;3.80;;
42066;SDS011;27734;47.028;28.820;2023-04-03T03:28:28;7.27;;;3.90;;
42066;SDS011;27734;47.028;28.820;2023-04-03T03:31:00;6.85;;;3.60;;
42066;SDS011;27734;47.028;28.820;2023-04-03T03:33:31;8.00;;;4.10;;
42066;SDS011;27734;47.028;28.820;2023-04-03T03:36:03;10.10;;;4.23;;
42066;SDS011;27734;47.028;28.820;2023-04-03T03:38:35;7.03;;;3.50;;
42066;SDS011;27734;47.028;28.820;2023-04-03T03:41:07;6.50;;;3.60;;
42066;SDS011;27734;47.028;28.820;2023-04-03T03:43:39;7.17;;;3.80;;
42066;SDS011;27734;47.028;28.820;2023-04-03T03:46:10;8.97;;;4.10;;
42066;SDS011;27734;47.028;28.820;2023-04-03T03:48:41;7.17;;;3.57;;
42066;SDS011;27734;47.028;28.820;2023-04-03T03:51:13;6.63;;;3.83;;
42066;SDS011;27734;47.028;28.820;2023-04-03T03:53:44;9.13;;;4.57;;
42066;SDS011;27734;47.028;28.820;2023-04-03T03:56:17;9.13;;;4.30;;
42066;SDS011;27734;47.028;28.820;2023-04-03T03:58:49;8.70;;;4.67;;
42066;SDS011;27734;47.028;28.820;2023-04-03T04:01:21;9.30;;;4.43;;
42066;SDS011;27734;47.028;28.820;2023-04-03T04:03:53;10.77;;;4.50;;
42066;SDS011;27734;47.028;28.820;2023-04-03T04:06:27;10.70;;;4.83;;
42066;SDS011;27734;47.028;28.820;2023-04-03T04:09:01;12.43;;;5.07;;
42066;SDS011;27734;47.028;28.820;2023-04-03T04:11:33;13.33;;;5.70;;
42066;SDS011;27734;47.028;28.820;2023-04-03T04:14:05;11.10;;;4.93;;
42066;SDS011;27734;47.028;28.820;2023-04-03T04:16:39;11.93;;;5.12;;
42066;SDS011;27734;47.028;28.820;2023-04-03T04:19:13;12.80;;;5.47;;
42066;SDS011;27734;47.028;28.820;2023-04-03T04:21:45;12.77;;;5.33;;
42066;SDS011;27734;47.028;28.820;2023-04-03T04:24:17;12.57;;;5.70;;
42066;SDS011;27734;47.028;28.820;2023-04-03T04:26:48;15.37;;;6.73;;
42066;SDS011;27734;47.028;28.820;2023-04-03T04:29:20;12.73;;;5.73;;
42066;SDS011;27734;47.028;28.820;2023-04-03T04:31:52;14.97;;;6.10;;
42066;SDS011;27734;47.028;28.820;2023-04-03T04:34:23;13.53;;;5.90;;
42066;SDS011;27734;47.028;28.820;2023-04-03T04:36:55;14.47;;;6.33;;
42066;SDS011;27734;47.028;28.820;2023-04-03T04:39:26;13.93;;;6.10;;
42066;SDS011;27734;47.028;28.820;2023-04-03T04:41:58;14.40;;;6.10;;
42066;SDS011;27734;47.028;28.820;2023-04-03T04:44:31;13.47;;;5.90;;
42066;SDS011;27734;47.028;28.820;2023-04-03T04:47:02;15.30;;;6.47;;
42066;SDS011;27734;47.028;28.820;2023-04-03T04:49:34;14.80;;;6.57;;
42066;SDS011;27734;47.028;28.820;2023-04-03T04:52:05;13.70;;;6.10;;
42066;SDS011;27734;47.028;28.820;2023-04-03T04:54:37;14.07;;;6.10;;
42066;SDS011;27734;47.028;28.820;2023-04-03T04:57:09;13.73;;;6.13;;
42066;SDS011;27734;47.028;28.820;2023-04-03T04:59:41;14.33;;;6.50;;
42066;SDS011;27734;47.028;28.820;2023-04-03T05:02:12;15.10;;;6.17;;
42066;SDS011;27734;47.028;28.820;2023-04-03T05:04:44;12.93;;;6.33;;
42066;SDS011;27734;47.028;28.820;2023-04-03T05:07:20;15.73;;;6.60;;
42066;SDS011;27734;47.028;28.820;2023-04-03T05:09:52;12.10;;;5.80;;
42066;SDS011;27734;47.028;28.820;2023-04-03T05:12:24;11.83;;;5.93;;
42066;SDS011;27734;47.028;28.820;2023-04-03T05:14:58;16.77;;;6.13;;
42066;SDS011;27734;47.028;28.820;2023-04-03T05:17:30;12.77;;;5.97;;
42066;SDS011;27734;47.028;28.820;2023-04-03T05:20:02;13.30;;;5.87;;
42066;SDS011;27734;47.028;28.820;2023-04-03T05:22:36;11.93;;;5.40;;
42066;SDS011;27734;47.028;28.820;2023-04-03T05:25:09;11.83;;;5.63;;
42066;SDS011;27734;47.028;28.820;2023-04-03T05:27:41;11.37;;;5.30;;
42066;SDS011;27734;47.028;28.820;2023-04-03T05:30:14;12.17;;;6.27;;
42066;SDS011;27734;47.028;28.820;2023-04-03T05:32:46;12.57;;;5.90;;
42066;SDS011;27734;47.028;28.820;2023-04-03T05:35:21;12.17;;;5.37;;
42066;SDS011;27734;47.028;28.820;2023-04-03T05:37:54;10.30;;;4.73;;
42066;SDS011;27734;47.028;28.820;2023-04-03T05:40:26;11.77;;;5.23;;
42066;SDS011;27734;47.028;28.820;2023-04-03T05:43:01;11.83;;;5.93;;
42066;SDS011;27734;47.028;28.820;2023-04-03T05:48:34;13.37;;;5.67;;
42066;SDS011;27734;47.028;28.820;2023-04-03T05:51:06;10.63;;;5.17;;
42066;SDS011;27734;47.028;28.820;2023-04-03T05:53:45;12.47;;;5.80;;
42066;SDS011;27734;47.028;28.820;2023-04-03T05:56:21;11.40;;;5.53;;
42066;SDS011;27734;47.028;28.820;2023-04-03T05:58:54;11.33;;;4.97;;
42066;SDS011;27734;47.028;28.820;2023-04-03T06:01:26;12.93;;;5.87;;
42066;SDS011;27734;47.028;28.820;2023-04-03T06:03:58;13.30;;;6.00;;
42066;SDS011;27734;47.028;28.820;2023-04-03T06:06:46;10.17;;;5.03;;
42066;SDS011;27734;47.028;28.820;2023-04-03T06:09:24;10.57;;;5.00;;
42066;SDS011;27734;47.028;28.820;2023-04-03T06:11:58;11.77;;;5.37;;
42066;SDS011;27734;47.028;28.820;2023-04-03T06:14:30;10.57;;;4.90;;
42066;SDS011;27734;47.028;28.820;2023-04-03T06:17:03;10.10;;;4.97;;
42066;SDS011;27734;47.028;28.820;2023-04-03T06:19:38;11.43;;;4.77;;
42066;SDS011;27734;47.028;28.820;2023-04-03T06:22:13;7.67;;;4.53;;
42066;SDS011;27734;47.028;28.820;2023-04-03T06:24:52;11.43;;;5.40;;
42066;SDS011;27734;47.028;28.820;2023-04-03T06:27:32;9.67;;;4.83;;
42066;SDS011;27734;47.028;28.820;2023-04-03T06:30:07;8.33;;;4.47;;
42066;SDS011;27734;47.028;28.820;2023-04-03T06:32:44;10.07;;;4.77;;
42066;SDS011;27734;47.028;28.820;2023-04-03T06:35:16;10.93;;;4.83;;
42066;SDS011;27734;47.028;28.820;2023-04-03T06:37:49;11.77;;;4.77;;
42066;SDS011;27734;47.028;28.820;2023-04-03T06:40:22;9.10;;;4.47;;
42066;SDS011;27734;47.028;28.820;2023-04-03T06:42:56;10.27;;;4.60;;
42066;SDS011;27734;47.028;28.820;2023-04-03T06:45:28;12.23;;;4.80;;
42066;SDS011;27734;47.028;28.820;2023-04-03T06:48:00;14.67;;;5.63;;
42066;SDS011;27734;47.028;28.820;2023-04-03T06:50:34;10.77;;;5.23;;
42066;SDS011;27734;47.028;28.820;2023-04-03T06:53:06;10.57;;;4.80;;
42066;SDS011;27734;47.028;28.820;2023-04-03T06:55:38;12.67;;;4.70;;
42066;SDS011;27734;47.028;28.820;2023-04-03T06:58:12;11.33;;;4.50;;
42066;SDS011;27734;47.028;28.820;2023-04-03T07:03:33;9.00;;;4.00;;
42066;SDS011;27734;47.028;28.820;2023-04-03T07:06:06;8.70;;;3.83;;
42066;SDS011;27734;47.028;28.820;2023-04-03T07:08:41;11.53;;;3.97;;
42066;SDS011;27734;47.028;28.820;2023-04-03T07:11:16;8.30;;;4.23;;
42066;SDS011;27734;47.028;28.820;2023-04-03T07:13:50;7.97;;;3.70;;
42066;SDS011;27734;47.028;28.820;2023-04-03T07:16:26;10.90;;;4.40;;
42066;SDS011;27734;47.028;28.820;2023-04-03T07:19:08;9.37;;;4.30;;
42066;SDS011;27734;47.028;28.820;2023-04-03T07:21:56;7.93;;;4.07;;
42066;SDS011;27734;47.028;28.820;2023-04-03T07:24:41;8.97;;;4.70;;
42066;SDS011;27734;47.028;28.820;2023-04-03T07:27:17;10.10;;;4.00;;
42066;SDS011;27734;47.028;28.820;2023-04-03T07:29:51;7.43;;;4.00;;
42066;SDS011;27734;47.028;28.820;2023-04-03T07:32:24;7.93;;;4.03;;
42066;SDS011;27734;47.028;28.820;2023-04-03T07:34:56;9.67;;;4.17;;
42066;SDS011;27734;47.028;28.820;2023-04-03T07:37:28;9.10;;;3.83;;
42066;SDS011;27734;47.028;28.820;2023-04-03T07:40:00;7.67;;;4.00;;
42066;SDS011;27734;47.028;28.820;2023-04-03T07:42:32;10.55;;;3.90;;
42066;SDS011;27734;47.028;28.820;2023-04-03T07:45:05;7.67;;;3.90;;
42066;SDS011;27734;47.028;28.820;2023-04-03T07:47:37;6.53;;;3.50;;
42066;SDS011;27734;47.028;28.820;2023-04-03T07:50:09;9.47;;;4.00;;
42066;SDS011;27734;47.028;28.820;2023-04-03T07:52:41;8.73;;;3.90;;
42066;SDS011;27734;47.028;28.820;2023-04-03T07:55:14;6.90;;;3.53;;
42066;SDS011;27734;47.028;28.820;2023-04-03T07:57:49;7.83;;;3.90;;
42066;SDS011;27734;47.028;28.820;2023-04-03T08:00:22;8.70;;;3.90;;
42066;SDS011;27734;47.028;28.820;2023-04-03T08:02:54;8.00;;;3.90;;
42066;SDS011;27734;47.028;28.820;2023-04-03T08:05:27;6.77;;;3.50;;
42066;SDS011;27734;47.028;28.820;2023-04-03T08:08:06;7.63;;;3.90;;
42066;SDS011;27734;47.028;28.820;2023-04-03T08:13:13;7.53;;;3.70;;
42066;SDS011;27734;47.028;28.820;2023-04-03T08:16:06;4.47;;;3.20;;
42066;SDS011;27734;47.028;28.820;2023-04-03T08:21:29;5.27;;;3.00;;
42066;SDS011;27734;47.028;28.820;2023-04-03T08:24:20;7.60;;;3.23;;
42066;SDS011;27734;47.028;28.820;2023-04-03T08:27:02;5.27;;;2.97;;
42066;SDS011;27734;47.028;28.820;2023-04-03T08:29:44;5.07;;;2.93;;
42066;SDS011;27734;47.028;28.820;2023-04-03T08:32:21;6.37;;;3.60;;
42066;SDS011;27734;47.028;28.820;2023-04-03T08:35:03;6.17;;;3.10;;
42066;SDS011;27734;47.028;28.820;2023-04-03T08:37:56;3.93;;;2.50;;
42066;SDS011;27734;47.028;28.820;2023-04-03T08:40:38;4.67;;;2.97;;
42066;SDS011;27734;47.028;28.820;2023-04-03T08:43:22;7.07;;;3.30;;
42066;SDS011;27734;47.028;28.820;2023-04-03T08:46:05;5.03;;;3.30;;
42066;SDS011;27734;47.028;28.820;2023-04-03T08:48:44;6.83;;;3.47;;
42066;SDS011;27734;47.028;28.820;2023-04-03T08:51:21;7.10;;;3.43;;
42066;SDS011;27734;47.028;28.820;2023-04-03T08:54:04;6.03;;;3.53;;
42066;SDS011;27734;47.028;28.820;2023-04-03T08:56:50;6.23;;;3.07;;
42066;SDS011;27734;47.028;28.820;2023-04-03T08:59:38;4.67;;;3.10;;
42066;SDS011;27734;47.028;28.820;2023-04-03T09:02:21;6.73;;;3.77;;
42066;SDS011;27734;47.028;28.820;2023-04-03T09:04:58;5.17;;;2.90;;
42066;SDS011;27734;47.028;28.820;2023-04-03T09:07:36;6.07;;;3.07;;
42066;SDS011;27734;47.028;28.820;2023-04-03T09:10:13;5.97;;;3.60;;
42066;SDS011;27734;47.028;28.820;2023-04-03T09:12:52;5.20;;;3.33;;
42066;SDS011;27734;47.028;28.820;2023-04-03T09:15:31;5.30;;;3.40;;
42066;SDS011;27734;47.028;28.820;2023-04-03T09:18:04;4.20;;;2.90;;
42066;SDS011;27734;47.028;28.820;2023-04-03T09:20:49;5.67;;;2.83;;
42066;SDS011;27734;47.028;28.820;2023-04-03T09:26:48;5.30;;;3.00;;
42066;SDS011;27734;47.028;28.820;2023-04-03T09:29:27;3.47;;;2.53;;
42066;SDS011;27734;47.028;28.820;2023-04-03T09:32:11;4.27;;;2.50;;
42066;SDS011;27734;47.028;28.820;2023-04-03T09:34:52;6.30;;;3.30;;
42066;SDS011;27734;47.028;28.820;2023-04-03T09:37:40;12.13;;;5.67;;
42066;SDS011;27734;47.028;28.820;2023-04-03T09:43:28;4.60;;;3.08;;
42066;SDS011;27734;47.028;28.820;2023-04-03T09:49:23;5.37;;;2.87;;
42066;SDS011;27734;47.028;28.820;2023-04-03T09:52:05;4.03;;;2.60;;
42066;SDS011;27734;47.028;28.820;2023-04-03T09:54:52;4.83;;;3.00;;
42066;SDS011;27734;47.028;28.820;2023-04-03T09:57:38;5.37;;;2.80;;
42066;SDS011;27734;47.028;28.820;2023-04-03T10:00:19;4.40;;;2.80;;
42066;SDS011;27734;47.028;28.820;2023-04-03T10:02:56;3.17;;;2.73;;
42066;SDS011;27734;47.028;28.820;2023-04-03T10:05:31;5.97;;;2.72;;
42066;SDS011;27734;47.028;28.820;2023-04-03T10:08:11;5.17;;;2.67;;
42066;SDS011;27734;47.028;28.820;2023-04-03T10:11:08;5.13;;;2.67;;
42066;SDS011;27734;47.028;28.820;2023-04-03T10:13:52;7.47;;;3.27;;
42066;SDS011;27734;47.028;28.820;2023-04-03T10:16:32;7.05;;;3.33;;
42066;SDS011;27734;47.028;28.820;2023-04-03T10:19:25;8.15;;;3.50;;
42066;SDS011;27734;47.028;28.820;2023-04-03T10:22:32;5.90;;;3.30;;
42066;SDS011;27734;47.028;28.820;2023-04-03T10:29:02;4.77;;;3.00;;
42066;SDS011;27734;47.028;28.820;2023-04-03T10:35:47;4.03;;;2.50;;
42066;SDS011;27734;47.028;28.820;2023-04-03T10:38:54;3.00;;;2.30;;
42066;SDS011;27734;47.028;28.820;2023-04-03T10:41:36;5.50;;;2.57;;
42066;SDS011;27734;47.028;28.820;2023-04-03T10:44:40;6.47;;;2.47;;
42066;SDS011;27734;47.028;28.820;2023-04-03T10:47:33;4.43;;;2.50;;
42066;SDS011;27734;47.028;28.820;2023-04-03T10:50:22;4.27;;;2.47;;
42066;SDS011;27734;47.028;28.820;2023-04-03T10:53:03;4.23;;;2.90;;
42066;SDS011;27734;47.028;28.820;2023-04-03T10:55:46;3.10;;;2.20;;
42066;SDS011;27734;47.028;28.820;2023-04-03T10:58:27;4.53;;;2.67;;
42066;SDS011;27734;47.028;28.820;2023-04-03T11:01:09;5.13;;;2.50;;
42066;SDS011;27734;47.028;28.820;2023-04-03T11:03:47;2.73;;;2.23;;
42066;SDS011;27734;47.028;28.820;2023-04-03T11:06:26;5.17;;;2.43;;
42066;SDS011;27734;47.028;28.820;2023-04-03T11:09:10;4.47;;;2.30;;
42066;SDS011;27734;47.028;28.820;2023-04-03T11:11:49;3.20;;;2.37;;
42066;SDS011;27734;47.028;28.820;2023-04-03T11:14:27;5.10;;;2.27;;
42066;SDS011;27734;47.028;28.820;2023-04-03T11:17:04;3.37;;;2.57;;
42066;SDS011;27734;47.028;28.820;2023-04-03T11:19:44;4.63;;;2.13;;
42066;SDS011;27734;47.028;28.820;2023-04-03T11:22:22;2.50;;;2.00;;
42066;SDS011;27734;47.028;28.820;2023-04-03T11:24:58;3.03;;;1.90;;
42066;SDS011;27734;47.028;28.820;2023-04-03T11:27:40;4.10;;;2.10;;
42066;SDS011;27734;47.028;28.820;2023-04-03T11:30:23;4.43;;;2.13;;
42066;SDS011;27734;47.028;28.820;2023-04-03T11:33:18;2.50;;;2.00;;
42066;SDS011;27734;47.028;28.820;2023-04-03T11:36:00;4.50;;;2.10;;
42066;SDS011;27734;47.028;28.820;2023-04-03T11:38:38;4.23;;;2.47;;
42066;SDS011;27734;47.028;28.820;2023-04-03T11:41:15;3.07;;;1.97;;
42066;SDS011;27734;47.028;28.820;2023-04-03T11:43:59;6.80;;;2.20;;
42066;SDS011;27734;47.028;28.820;2023-04-03T11:46:54;4.00;;;2.30;;
42066;SDS011;27734;47.028;28.820;2023-04-03T11:55:44;4.03;;;2.10;;
42066;SDS011;27734;47.028;28.820;2023-04-03T12:01:06;3.70;;;2.10;;
42066;SDS011;27734;47.028;28.820;2023-04-03T12:06:51;3.73;;;2.03;;
42066;SDS011;27734;47.028;28.820;2023-04-03T12:12:58;4.70;;;2.10;;
42066;SDS011;27734;47.028;28.820;2023-04-03T12:24:39;3.83;;;2.20;;
42066;SDS011;27734;47.028;28.820;2023-04-03T12:27:21;4.43;;;1.90;;
42066;SDS011;27734;47.028;28.820;2023-04-03T12:30:05;2.20;;;1.67;;
42066;SDS011;27734;47.028;28.820;2023-04-03T12:35:56;6.00;;;2.10;;
42066;SDS011;27734;47.028;28.820;2023-04-03T12:38:44;2.25;;;1.45;;
42066;SDS011;27734;47.028;28.820;2023-04-03T12:41:33;5.40;;;2.00;;
42066;SDS011;27734;47.028;28.820;2023-04-03T12:44:30;2.57;;;1.60;;
42066;SDS011;27734;47.028;28.820;2023-04-03T12:47:16;6.33;;;2.03;;
42066;SDS011;27734;47.028;28.820;2023-04-03T12:49:55;3.83;;;1.53;;
42066;SDS011;27734;47.028;28.820;2023-04-03T12:52:41;2.47;;;1.70;;
42066;SDS011;27734;47.028;28.820;2023-04-03T12:55:21;4.37;;;1.40;;
42066;SDS011;27734;47.028;28.820;2023-04-03T12:57:52;3.42;;;1.80;;
42066;SDS011;27734;47.028;28.820;2023-04-03T13:00:31;3.10;;;1.67;;
42066;SDS011;27734;47.028;28.820;2023-04-03T13:03:14;3.90;;;1.90;;
42066;SDS011;27734;47.028;28.820;2023-04-03T13:06:04;2.33;;;1.93;;
42066;SDS011;27734;47.028;28.820;2023-04-03T13:08:38;2.87;;;1.60;;
42066;SDS011;27734;47.028;28.820;2023-04-03T13:11:30;4.20;;;1.60;;
42066;SDS011;27734;47.028;28.820;2023-04-03T13:14:14;4.30;;;1.75;;
42066;SDS011;27734;47.028;28.820;2023-04-03T13:19:28;3.27;;;2.23;;
42066;SDS011;27734;47.028;28.820;2023-04-03T13:22:05;2.70;;;2.05;;
42066;SDS011;27734;47.028;28.820;2023-04-03T13:24:55;3.23;;;2.13;;
42066;SDS011;27734;47.028;28.820;2023-04-03T13:27:31;3.63;;;2.50;;
42066;SDS011;27734;47.028;28.820;2023-04-03T13:30:18;1.90;;;1.80;;
42066;SDS011;27734;47.028;28.820;2023-04-03T13:33:23;4.50;;;2.20;;
42066;SDS011;27734;47.028;28.820;2023-04-03T13:36:03;3.07;;;2.20;;
42066;SDS011;27734;47.028;28.820;2023-04-03T13:38:44;3.90;;;2.20;;
42066;SDS011;27734;47.028;28.820;2023-04-03T13:41:29;5.93;;;2.03;;
42066;SDS011;27734;47.028;28.820;2023-04-03T13:44:16;4.03;;;2.37;;
42066;SDS011;27734;47.028;28.820;2023-04-03T13:47:14;4.07;;;2.30;;
42066;SDS011;27734;47.028;28.820;2023-04-03T13:49:58;4.67;;;2.37;;
42066;SDS011;27734;47.028;28.820;2023-04-03T13:52:32;2.75;;;2.02;;
42066;SDS011;27734;47.028;28.820;2023-04-03T13:55:19;5.10;;;2.53;;
42066;SDS011;27734;47.028;28.820;2023-04-03T13:57:54;4.15;;;2.30;;
42066;SDS011;27734;47.028;28.820;2023-04-03T14:00:33;5.90;;;2.60;;
42066;SDS011;27734;47.028;28.820;2023-04-03T14:03:13;4.93;;;2.90;;
42066;SDS011;27734;47.028;28.820;2023-04-03T14:05:48;5.10;;;2.50;;
42066;SDS011;27734;47.028;28.820;2023-04-03T14:08:21;3.60;;;2.70;;
42066;SDS011;27734;47.028;28.820;2023-04-03T14:10:53;4.97;;;3.07;;
42066;SDS011;27734;47.028;28.820;2023-04-03T14:13:25;5.87;;;2.83;;
42066;SDS011;27734;47.028;28.820;2023-04-03T14:15:59;5.75;;;2.85;;
42066;SDS011;27734;47.028;28.820;2023-04-03T14:18:30;4.00;;;2.67;;
42066;SDS011;27734;47.028;28.820;2023-04-03T14:21:02;5.33;;;3.13;;
42066;SDS011;27734;47.028;28.820;2023-04-03T14:23:33;6.10;;;2.83;;
42066;SDS011;27734;47.028;28.820;2023-04-03T14:26:08;7.77;;;2.83;;
42066;SDS011;27734;47.028;28.820;2023-04-03T14:28:44;6.20;;;3.20;;
42066;SDS011;27734;47.028;28.820;2023-04-03T14:31:17;6.20;;;3.50;;
42066;SDS011;27734;47.028;28.820;2023-04-03T14:33:50;5.97;;;3.30;;
42066;SDS011;27734;47.028;28.820;2023-04-03T14:36:22;6.50;;;3.50;;
42066;SDS011;27734;47.028;28.820;2023-04-03T14:38:59;7.00;;;3.10;;
42066;SDS011;27734;47.028;28.820;2023-04-03T14:41:32;9.45;;;3.65;;
42066;SDS011;27734;47.028;28.820;2023-04-03T14:44:05;5.80;;;3.00;;
42066;SDS011;27734;47.028;28.820;2023-04-03T14:46:36;7.97;;;3.60;;
42066;SDS011;27734;47.028;28.820;2023-04-03T14:49:15;10.37;;;3.77;;
42066;SDS011;27734;47.028;28.820;2023-04-03T14:51:58;5.83;;;3.47;;
42066;SDS011;27734;47.028;28.820;2023-04-03T14:54:30;7.17;;;3.40;;
42066;SDS011;27734;47.028;28.820;2023-04-03T14:57:01;5.87;;;3.57;;
42066;SDS011;27734;47.028;28.820;2023-04-03T14:59:38;6.20;;;3.43;;
42066;SDS011;27734;47.028;28.820;2023-04-03T15:04:57;5.93;;;3.43;;
42066;SDS011;27734;47.028;28.820;2023-04-03T15:07:32;5.63;;;3.43;;
42066;SDS011;27734;47.028;28.820;2023-04-03T15:10:14;8.83;;;3.70;;
42066;SDS011;27734;47.028;28.820;2023-04-03T15:12:48;8.00;;;3.30;;
42066;SDS011;27734;47.028;28.820;2023-04-03T15:15:20;7.80;;;3.70;;
42066;SDS011;27734;47.028;28.820;2023-04-03T15:17:53;6.53;;;3.07;;
42066;SDS011;27734;47.028;28.820;2023-04-03T15:20:29;5.57;;;2.97;;
42066;SDS011;27734;47.028;28.820;2023-04-03T15:23:01;7.40;;;3.50;;
42066;SDS011;27734;47.028;28.820;2023-04-03T15:25:34;6.43;;;3.20;;
42066;SDS011;27734;47.028;28.820;2023-04-03T15:28:05;8.33;;;3.80;;
42066;SDS011;27734;47.028;28.820;2023-04-03T15:30:37;9.70;;;3.70;;
42066;SDS011;27734;47.028;28.820;2023-04-03T15:33:10;7.75;;;3.25;;
42066;SDS011;27734;47.028;28.820;2023-04-03T15:35:41;5.10;;;3.30;;
42066;SDS011;27734;47.028;28.820;2023-04-03T15:38:12;5.77;;;2.97;;
42066;SDS011;27734;47.028;28.820;2023-04-03T15:40:44;5.90;;;3.40;;
42066;SDS011;27734;47.028;28.820;2023-04-03T15:43:16;5.03;;;3.20;;
42066;SDS011;27734;47.028;28.820;2023-04-03T15:45:47;5.33;;;3.20;;
42066;SDS011;27734;47.028;28.820;2023-04-03T15:48:19;6.70;;;3.47;;
42066;SDS011;27734;47.028;28.820;2023-04-03T15:50:51;7.27;;;3.50;;
42066;SDS011;27734;47.028;28.820;2023-04-03T15:53:22;5.83;;;3.17;;
42066;SDS011;27734;47.028;28.820;2023-04-03T15:55:54;5.60;;;3.40;;
42066;SDS011;27734;47.028;28.820;2023-04-03T15:58:25;5.03;;;3.33;;
42066;SDS011;27734;47.028;28.820;2023-04-03T16:00:56;6.10;;;3.57;;
42066;SDS011;27734;47.028;28.820;2023-04-03T16:03:28;9.27;;;3.70;;
42066;SDS011;27734;47.028;28.820;2023-04-03T16:05:59;7.33;;;3.70;;
42066;SDS011;27734;47.028;28.820;2023-04-03T16:08:31;7.80;;;3.73;;
42066;SDS011;27734;47.028;28.820;2023-04-03T16:11:04;6.83;;;3.83;;
42066;SDS011;27734;47.028;28.820;2023-04-03T16:13:36;6.77;;;3.67;;
42066;SDS011;27734;47.028;28.820;2023-04-03T16:16:07;8.27;;;3.47;;
42066;SDS011;27734;47.028;28.820;2023-04-03T16:18:39;5.80;;;3.20;;
42066;SDS011;27734;47.028;28.820;2023-04-03T16:21:10;5.23;;;3.33;;
42066;SDS011;27734;47.028;28.820;2023-04-03T16:23:43;9.50;;;3.93;;
42066;SDS011;27734;47.028;28.820;2023-04-03T16:26:15;6.73;;;3.80;;
42066;SDS011;27734;47.028;28.820;2023-04-03T16:28:48;6.73;;;3.43;;
42066;SDS011;27734;47.028;28.820;2023-04-03T16:31:19;7.23;;;3.33;;